Search for airport 
image banner adimage banner adimage banner ad
image banner ad

LTAZ - Kapadokya

Located in Nevsehir, Turkey

ICAO - LTAZ, IATA - NAV

Data provided by Airmate  

General information

Coordinates: N38°46'31" E34°31'36"
Elevation is 3090 feet MSL.
Magnetic variation is 5.5° East
Rated:
View ratings:
[VIEW]
View others Airports in Nevsehir

Operational data

Special qualification required
Current time UTC:
Current local time:
Weather
METAR: LTAZ 082150Z 29003KT 9999 FEW040 BKN120 13/10 Q1013 RMK RWY29 30005KT
TAF: TAF LTAZ 081640Z 0818/0918 27012KT 9999 FEW040 BKN120 BECMG 0818/0820 VRB02KT BECMG 0903/0906 32013KT BKN035 TEMPO 0906/0910 34015G25KT -TSRA FEW025CB BKN035 TEMPO 0910/0914 34015G25KT -TSRA FEW025CB BKN035
View NOTAMs / SUP AIP / TFR affecting this airport [VIEW]
Communications frequencies: [VIEW]

Runways:

RWY identifierQFULength (ft)Width (ft)SurfaceLDA (ft)
11117°9843148CONC9843
29297°9843148CONC9843

Airport contact information

Address: Nevsehir Turkey

Satellite view of LTAZ